Time;durP1;ratioP1;P1;durP2;ratioP2;P2;SDS_P1;SDS_P2;PMS_P1;PMS_P2;Temp;Humidity;BMP_temperature;BMP_pressure;BME280_temperature;BME280_humidity;BME280_pressure;Samples;Min_cycle;Max_cycle;Signal;HPM_P1;HPM_P2
2021/03/17 00:00:19;;;;;;;8.63;4.37;;;;;;;;;;2084424;28;20203;-55
2021/03/17 00:01:38;;;;;;;10.23;4.33;;;;;;;;;;2079131;28;20595;-57
2021/03/17 00:02:57;;;;;;;7.63;4.30;;;;;;;;;;2081915;28;20639;-56
2021/03/17 00:04:16;;;;;;;8.90;4.10;;;;;;;;;;2082189;28;20199;-54
2021/03/17 00:05:36;;;;;;;9.63;4.50;;;;;;;;;;2081035;28;20188;-54
2021/03/17 00:06:55;;;;;;;11.03;4.97;;;;;;;;;;2082185;28;20168;-54
2021/03/17 00:08:17;;;;;;;8.47;5.10;;;;;;;;;;2080802;28;20625;-54
2021/03/17 00:09:36;;;;;;;9.40;5.00;;;;;;;;;;2081196;28;20164;-54
2021/03/17 00:10:55;;;;;;;7.97;4.47;;;;;;;;;;2081094;28;20633;-54
2021/03/17 00:12:14;;;;;;;10.87;4.67;;;;;;;;;;2081067;28;20207;-56
2021/03/17 00:13:33;;;;;;;4.83;3.93;;;;;;;;;;2080147;28;20175;-56
2021/03/17 00:14:52;;;;;;;8.03;3.90;;;;;;;;;;2079923;28;20231;-56
2021/03/17 00:16:11;;;;;;;6.83;4.17;;;;;;;;;;2081132;28;20547;-55
2021/03/17 00:17:29;;;;;;;10.43;3.90;;;;;;;;;;2080097;28;20591;-58
2021/03/17 00:18:48;;;;;;;10.87;4.70;;;;;;;;;;2079485;28;20180;-57
2021/03/17 00:20:09;;;;;;;8.30;4.00;;;;;;;;;;2080008;28;20636;-56
2021/03/17 00:21:28;;;;;;;6.00;3.47;;;;;;;;;;2079825;28;20207;-54
2021/03/17 00:22:47;;;;;;;11.73;4.20;;;;;;;;;;2080161;28;20164;-58
2021/03/17 00:24:07;;;;;;;8.30;3.77;;;;;;;;;;2078360;28;20661;-56
2021/03/17 00:25:28;;;;;;;8.17;4.13;;;;;;;;;;2079187;28;20200;-58
2021/03/17 00:26:47;;;;;;;10.70;4.87;;;;;;;;;;2079344;28;20188;-57
2021/03/17 00:28:08;;;;;;;4.63;3.80;;;;;;;;;;2079094;28;20152;-56
2021/03/17 00:29:27;;;;;;;8.17;4.27;;;;;;;;;;2079887;28;20169;-57
2021/03/17 00:30:46;;;;;;;12.80;4.27;;;;;;;;;;2079810;28;20629;-59
2021/03/17 00:32:05;;;;;;;8.60;4.90;;;;;;;;;;2078113;28;20176;-56
2021/03/17 00:33:23;;;;;;;8.70;4.27;;;;;;;;;;2078591;28;20184;-59
2021/03/17 00:34:42;;;;;;;10.83;4.47;;;;;;;;;;2079693;28;20641;-58
2021/03/17 00:36:01;;;;;;;9.57;4.73;;;;;;;;;;2078804;28;20169;-56
2021/03/17 00:37:20;;;;;;;10.60;4.20;;;;;;;;;;2078577;28;20584;-56
2021/03/17 00:38:39;;;;;;;9.90;4.27;;;;;;;;;;2079162;28;20660;-56
2021/03/17 00:39:58;;;;;;;8.90;4.20;;;;;;;;;;2080885;28;20196;-57
2021/03/17 00:41:17;;;;;;;10.47;5.03;;;;;;;;;;2081220;28;20168;-57
2021/03/17 00:42:36;;;;;;;9.50;4.90;;;;;;;;;;2081421;28;20159;-54
2021/03/17 00:43:55;;;;;;;9.33;5.30;;;;;;;;;;2080433;28;20678;-56
2021/03/17 00:45:14;;;;;;;8.77;4.17;;;;;;;;;;2080349;28;20555;-57
2021/03/17 00:46:33;;;;;;;11.53;4.50;;;;;;;;;;2081492;28;20644;-57
2021/03/17 00:47:41;;;;;;;10.30;4.50;;;;;;;;;;2080305;28;20263;-55
2021/03/17 00:48:41;;;;;;;8.93;4.43;;;;;;;;;;2081090;28;20168;-55
2021/03/17 00:49:55;;;;;;;8.80;4.50;;;;;;;;;;2081905;28;20631;-56
2021/03/17 00:50:57;;;;;;;7.50;3.70;;;;;;;;;;2082611;28;21612;-58
2021/03/17 00:52:01;;;;;;;9.33;4.43;;;;;;;;;;2082119;28;20187;-57
2021/03/17 00:53:20;;;;;;;7.47;3.73;;;;;;;;;;2083187;28;20540;-58
2021/03/17 00:54:20;;;;;;;7.87;3.77;;;;;;;;;;2082470;28;20191;-57
2021/03/17 01:03:46;;;;;;;7.13;3.97;;;;;;;;;;2081656;28;20152;-58
2021/03/17 01:06:59;;;;;;;6.87;4.37;;;;;;;;;;2083076;28;20160;-58
2021/03/17 01:08:00;;;;;;;6.50;4.23;;;;;;;;;;2081388;28;20188;-57
2021/03/17 01:09:00;;;;;;;8.80;4.73;;;;;;;;;;2084138;28;20165;-58
2021/03/17 01:10:00;;;;;;;9.83;4.97;;;;;;;;;;2084127;28;20199;-56
2021/03/17 01:11:01;;;;;;;11.80;4.50;;;;;;;;;;2084078;28;20184;-57
2021/03/17 01:12:01;;;;;;;6.87;4.27;;;;;;;;;;2083794;28;20230;-57
2021/03/17 01:13:02;;;;;;;13.87;4.50;;;;;;;;;;2084075;28;20176;-56
2021/03/17 01:14:02;;;;;;;11.60;4.90;;;;;;;;;;2083852;28;20699;-59
2021/03/17 01:15:04;;;;;;;10.27;4.40;;;;;;;;;;2091912;28;20171;-57
2021/03/17 01:16:04;;;;;;;9.80;4.63;;;;;;;;;;2092035;28;20180;-57
2021/03/17 01:17:05;;;;;;;9.87;4.60;;;;;;;;;;2083039;28;20179;-58
2021/03/17 01:18:06;;;;;;;9.47;4.60;;;;;;;;;;2082477;28;20215;-58
2021/03/17 01:19:06;;;;;;;11.33;4.47;;;;;;;;;;2083865;28;20640;-57
2021/03/17 01:20:07;;;;;;;9.57;4.30;;;;;;;;;;2084966;28;20245;-57
2021/03/17 01:21:07;;;;;;;7.40;4.40;;;;;;;;;;2084121;28;20195;-57
2021/03/17 01:22:08;;;;;;;7.00;3.63;;;;;;;;;;2083474;28;20255;-57
2021/03/17 01:23:08;;;;;;;8.83;4.73;;;;;;;;;;2081791;28;20212;-58
2021/03/17 01:24:09;;;;;;;10.10;4.03;;;;;;;;;;2083831;28;20211;-64
2021/03/17 01:25:14;;;;;;;5.17;3.83;;;;;;;;;;2083106;28;20173;-57
2021/03/17 01:26:14;;;;;;;9.77;4.03;;;;;;;;;;2076782;28;20180;-57
2021/03/17 01:27:14;;;;;;;7.80;4.30;;;;;;;;;;2073991;28;20184;-54
2021/03/17 01:28:14;;;;;;;7.13;4.30;;;;;;;;;;2083498;28;20175;-58
2021/03/17 01:29:15;;;;;;;10.90;4.40;;;;;;;;;;2084482;28;20306;-57
2021/03/17 01:30:16;;;;;;;11.40;4.60;;;;;;;;;;2082610;28;20651;-56
2021/03/17 01:31:16;;;;;;;11.07;4.67;;;;;;;;;;2082190;28;20258;-56
2021/03/17 01:32:17;;;;;;;8.43;4.70;;;;;;;;;;2082579;28;20196;-57
2021/03/17 01:33:17;;;;;;;6.73;4.50;;;;;;;;;;2079923;28;20192;-57
2021/03/17 01:34:18;;;;;;;7.27;4.27;;;;;;;;;;2082513;28;20818;-55
2021/03/17 01:35:18;;;;;;;7.40;4.43;;;;;;;;;;2083155;28;20180;-58
2021/03/17 01:36:19;;;;;;;4.83;4.00;;;;;;;;;;2082063;28;20184;-57
2021/03/17 01:37:19;;;;;;;7.07;4.50;;;;;;;;;;2074135;28;20184;-58
2021/03/17 01:38:19;;;;;;;9.77;4.67;;;;;;;;;;2074485;28;20188;-58
2021/03/17 01:39:20;;;;;;;8.43;4.10;;;;;;;;;;2082118;28;20172;-55
2021/03/17 01:40:22;;;;;;;13.17;3.93;;;;;;;;;;2081689;28;20238;-54
2021/03/17 01:41:22;;;;;;;9.67;5.00;;;;;;;;;;2081627;28;20258;-57
2021/03/17 01:42:22;;;;;;;7.70;4.60;;;;;;;;;;2081987;28;20543;-58
2021/03/17 01:43:23;;;;;;;12.43;4.47;;;;;;;;;;2082367;28;20176;-57
2021/03/17 01:44:24;;;;;;;10.90;4.50;;;;;;;;;;2080652;28;20200;-57
2021/03/17 01:45:24;;;;;;;6.83;4.37;;;;;;;;;;2081858;28;20173;-55
2021/03/17 01:46:24;;;;;;;8.53;5.07;;;;;;;;;;2081859;28;20200;-57
2021/03/17 01:47:25;;;;;;;10.80;4.93;;;;;;;;;;2082210;28;20178;-57
2021/03/17 01:48:25;;;;;;;10.93;5.87;;;;;;;;;;2088801;28;20266;-56
2021/03/17 01:49:25;;;;;;;10.73;5.00;;;;;;;;;;2081650;28;20172;-54
2021/03/17 01:50:27;;;;;;;11.03;5.63;;;;;;;;;;2081184;28;20177;-54
2021/03/17 01:51:27;;;;;;;8.93;4.90;;;;;;;;;;2080603;28;20221;-56
2021/03/17 01:52:28;;;;;;;6.60;4.73;;;;;;;;;;2080412;28;20184;-54
2021/03/17 01:53:30;;;;;;;7.60;4.83;;;;;;;;;;2080418;28;20323;-55
2021/03/17 01:54:30;;;;;;;8.00;5.40;;;;;;;;;;2079817;28;20594;-54
2021/03/17 01:55:30;;;;;;;8.80;5.37;;;;;;;;;;2081797;28;20198;-58
2021/03/17 01:56:31;;;;;;;14.50;5.17;;;;;;;;;;2081643;28;20193;-56
2021/03/17 01:57:32;;;;;;;7.43;5.07;;;;;;;;;;2081363;28;20183;-56
2021/03/17 01:58:33;;;;;;;7.53;4.27;;;;;;;;;;2081191;28;20538;-54
2021/03/17 01:59:34;;;;;;;9.73;4.43;;;;;;;;;;2081978;28;20276;-54
2021/03/17 02:00:35;;;;;;;5.00;3.60;;;;;;;;;;2081563;28;20223;-58
2021/03/17 02:01:36;;;;;;;5.83;3.37;;;;;;;;;;2081650;28;20197;-55
2021/03/17 02:02:37;;;;;;;7.47;3.50;;;;;;;;;;2082216;28;20164;-55
2021/03/17 02:03:37;;;;;;;3.83;2.83;;;;;;;;;;2081598;28;20248;-58
2021/03/17 02:04:37;;;;;;;4.67;2.67;;;;;;;;;;2081997;28;20645;-57
2021/03/17 02:05:40;;;;;;;6.37;3.00;;;;;;;;;;2082114;28;20191;-57
2021/03/17 02:06:40;;;;;;;3.53;3.23;;;;;;;;;;2081191;28;20672;-55
2021/03/17 02:07:40;;;;;;;4.43;3.17;;;;;;;;;;2081972;28;20206;-55
2021/03/17 02:08:42;;;;;;;4.90;3.60;;;;;;;;;;2078912;28;20173;-57
2021/03/17 02:09:43;;;;;;;3.50;3.00;;;;;;;;;;2081368;28;20603;-58
2021/03/17 02:10:43;;;;;;;3.73;3.30;;;;;;;;;;2081691;28;20172;-55
2021/03/17 02:11:48;;;;;;;5.73;3.00;;;;;;;;;;2080470;28;21062;-57
2021/03/17 02:12:53;;;;;;;8.10;3.57;;;;;;;;;;2081024;28;20172;-57
2021/03/17 02:13:58;;;;;;;3.60;3.30;;;;;;;;;;2081095;28;20176;-57
2021/03/17 02:15:07;;;;;;;4.50;3.13;;;;;;;;;;2085803;28;20168;-57
2021/03/17 02:16:24;;;;;;;4.70;2.97;;;;;;;;;;2084277;28;20172;-58
2021/03/17 02:17:27;;;;;;;4.87;3.10;;;;;;;;;;2081726;28;20180;-54
2021/03/17 02:18:35;;;;;;;5.17;2.60;;;;;;;;;;2078866;28;20839;-57
2021/03/17 02:19:38;;;;;;;4.67;2.93;;;;;;;;;;2081006;28;20231;-55
2021/03/17 02:20:50;;;;;;;3.67;2.90;;;;;;;;;;2081285;28;20204;-56
2021/03/17 02:21:53;;;;;;;4.00;2.80;;;;;;;;;;2080927;28;20165;-56
2021/03/17 02:22:58;;;;;;;5.87;2.97;;;;;;;;;;2080577;28;20172;-56
2021/03/17 02:24:12;;;;;;;4.53;2.80;;;;;;;;;;2081130;28;20200;-55
2021/03/17 02:25:36;;;;;;;5.10;2.77;;;;;;;;;;2080067;28;20207;-54
2021/03/17 02:26:42;;;;;;;6.23;2.90;;;;;;;;;;2079960;28;20263;-56
2021/03/17 02:27:45;;;;;;;5.23;3.03;;;;;;;;;;2082589;28;20164;-58
2021/03/17 02:28:53;;;;;;;5.10;3.33;;;;;;;;;;2082749;28;20238;-58
2021/03/17 02:29:54;;;;;;;5.13;2.70;;;;;;;;;;2085397;28;20295;-58
2021/03/17 02:31:09;;;;;;;3.83;2.77;;;;;;;;;;2085301;28;20576;-56
2021/03/17 02:32:35;;;;;;;4.57;3.20;;;;;;;;;;2082351;28;20249;-55
2021/03/17 02:33:48;;;;;;;6.97;3.47;;;;;;;;;;2059645;28;20289;-54
2021/03/17 02:34:50;;;;;;;9.03;3.17;;;;;;;;;;2081391;28;20658;-57
2021/03/17 02:35:52;;;;;;;3.90;3.50;;;;;;;;;;2089636;28;20168;-56
2021/03/17 02:36:56;;;;;;;4.80;3.23;;;;;;;;;;2088662;28;20274;-54
2021/03/17 02:37:58;;;;;;;4.43;3.17;;;;;;;;;;2082050;28;20266;-54
2021/03/17 02:39:04;;;;;;;9.73;3.70;;;;;;;;;;2076963;28;20181;-57
2021/03/17 02:40:06;;;;;;;7.57;3.47;;;;;;;;;;2073203;28;20287;-55
2021/03/17 02:41:06;;;;;;;6.17;3.30;;;;;;;;;;2080652;28;20181;-55
2021/03/17 02:42:07;;;;;;;7.07;4.07;;;;;;;;;;2078972;28;20184;-58
2021/03/17 02:43:10;;;;;;;6.77;3.53;;;;;;;;;;2081617;28;20169;-58
2021/03/17 02:44:13;;;;;;;6.00;3.90;;;;;;;;;;2079631;28;20188;-58
2021/03/17 02:45:16;;;;;;;7.47;3.80;;;;;;;;;;2081724;28;20248;-56
2021/03/17 02:46:17;;;;;;;3.60;3.30;;;;;;;;;;2088634;28;20187;-56
2021/03/17 02:47:18;;;;;;;3.80;3.40;;;;;;;;;;2089002;28;20255;-56
2021/03/17 02:48:22;;;;;;;7.30;3.47;;;;;;;;;;2080767;28;20653;-56
2021/03/17 02:49:23;;;;;;;5.17;3.73;;;;;;;;;;2080457;28;20189;-56
2021/03/17 02:50:24;;;;;;;7.23;4.20;;;;;;;;;;2080494;28;20168;-57
2021/03/17 02:51:30;;;;;;;4.63;3.77;;;;;;;;;;2080345;28;20196;-56
2021/03/17 02:52:33;;;;;;;6.67;3.27;;;;;;;;;;2079542;28;20187;-56
2021/03/17 02:53:34;;;;;;;4.80;3.03;;;;;;;;;;2080816;28;20191;-56
2021/03/17 02:54:37;;;;;;;4.83;3.10;;;;;;;;;;2079460;28;20742;-57
2021/03/17 02:55:40;;;;;;;4.87;2.73;;;;;;;;;;2081281;28;20183;-55
2021/03/17 02:56:45;;;;;;;4.90;3.00;;;;;;;;;;2080953;28;20172;-59
2021/03/17 02:57:46;;;;;;;6.60;2.90;;;;;;;;;;2080225;28;20191;-55
2021/03/17 02:58:47;;;;;;;7.63;3.23;;;;;;;;;;2081105;28;20199;-54
2021/03/17 02:59:51;;;;;;;6.10;3.33;;;;;;;;;;2080665;28;20187;-57
2021/03/17 03:00:51;;;;;;;7.57;3.10;;;;;;;;;;2081826;28;20194;-54
2021/03/17 03:01:52;;;;;;;3.97;3.03;;;;;;;;;;2080752;28;20210;-57
2021/03/17 03:02:52;;;;;;;7.13;3.37;;;;;;;;;;2081782;28;20267;-57
2021/03/17 03:03:53;;;;;;;3.67;3.40;;;;;;;;;;2081483;28;20629;-57
2021/03/17 03:04:54;;;;;;;5.47;3.40;;;;;;;;;;2081839;28;20238;-56
2021/03/17 03:05:55;;;;;;;4.07;3.57;;;;;;;;;;2081088;28;20176;-57
2021/03/17 03:06:56;;;;;;;6.33;3.53;;;;;;;;;;2081292;28;20626;-56
2021/03/17 03:07:58;;;;;;;4.13;3.00;;;;;;;;;;2080995;28;20413;-56
2021/03/17 03:08:59;;;;;;;3.40;3.07;;;;;;;;;;2080906;28;20207;-56
2021/03/17 03:10:01;;;;;;;6.13;3.90;;;;;;;;;;2078123;28;20180;-56
2021/03/17 03:11:01;;;;;;;7.23;3.80;;;;;;;;;;2080715;28;20164;-58
2021/03/17 03:12:02;;;;;;;5.73;4.33;;;;;;;;;;2080514;28;20199;-55
2021/03/17 03:13:03;;;;;;;5.83;3.50;;;;;;;;;;2081115;28;20259;-57
2021/03/17 03:14:06;;;;;;;5.53;4.40;;;;;;;;;;2081013;28;20192;-57
2021/03/17 03:15:08;;;;;;;6.07;4.33;;;;;;;;;;2079823;28;20255;-55
2021/03/17 03:16:09;;;;;;;4.47;3.97;;;;;;;;;;2077912;28;20184;-57
2021/03/17 03:17:10;;;;;;;4.80;3.60;;;;;;;;;;2081688;28;20258;-58
2021/03/17 03:18:10;;;;;;;5.97;3.83;;;;;;;;;;2081551;28;20180;-56
2021/03/17 03:19:11;;;;;;;8.07;3.70;;;;;;;;;;2088979;28;20233;-57
2021/03/17 03:20:15;;;;;;;5.03;4.07;;;;;;;;;;2088687;28;20357;-56
2021/03/17 03:21:17;;;;;;;5.50;3.50;;;;;;;;;;2089062;28;20172;-59
2021/03/17 03:22:18;;;;;;;7.77;3.60;;;;;;;;;;2071445;28;20180;-59
2021/03/17 03:23:19;;;;;;;4.27;3.57;;;;;;;;;;2072928;28;20177;-57
2021/03/17 03:24:20;;;;;;;5.17;3.60;;;;;;;;;;2080621;28;20579;-55
2021/03/17 03:25:22;;;;;;;8.93;3.83;;;;;;;;;;2079135;28;20180;-56
2021/03/17 03:26:22;;;;;;;7.53;3.53;;;;;;;;;;2078399;28;20172;-57
2021/03/17 03:27:25;;;;;;;3.77;3.30;;;;;;;;;;2080040;28;20168;-59
2021/03/17 03:28:26;;;;;;;4.20;3.57;;;;;;;;;;2080171;28;20176;-57
2021/03/17 03:29:26;;;;;;;6.80;3.57;;;;;;;;;;2080027;28;20259;-57
2021/03/17 03:30:29;;;;;;;7.10;3.77;;;;;;;;;;2080780;28;20274;-57
2021/03/17 03:31:29;;;;;;;7.77;3.63;;;;;;;;;;2078062;28;20176;-58
2021/03/17 03:32:29;;;;;;;5.80;3.07;;;;;;;;;;2081559;28;20168;-55
2021/03/17 03:33:30;;;;;;;5.33;3.93;;;;;;;;;;2081260;28;20251;-54
2021/03/17 03:34:30;;;;;;;5.27;3.73;;;;;;;;;;2091517;22;20602;-55
2021/03/17 03:35:30;;;;;;;6.97;3.50;;;;;;;;;;2080479;28;20222;-62
2021/03/17 03:36:31;;;;;;;9.00;4.07;;;;;;;;;;2080572;28;20188;-62
2021/03/17 03:37:31;;;;;;;8.13;3.93;;;;;;;;;;2080607;28;20222;-61
2021/03/17 03:38:31;;;;;;;4.83;3.27;;;;;;;;;;2081218;28;20200;-59
2021/03/17 03:39:32;;;;;;;6.87;3.40;;;;;;;;;;2080206;28;20179;-62
2021/03/17 03:40:32;;;;;;;6.03;3.33;;;;;;;;;;2078580;28;20208;-60
2021/03/17 03:41:33;;;;;;;5.90;3.37;;;;;;;;;;2080336;28;20176;-60
2021/03/17 03:42:33;;;;;;;3.67;3.30;;;;;;;;;;2081163;28;20579;-61
2021/03/17 03:43:34;;;;;;;4.90;3.37;;;;;;;;;;2080067;28;20264;-61
2021/03/17 03:44:34;;;;;;;7.47;3.33;;;;;;;;;;2062986;28;20189;-60
2021/03/17 03:45:35;;;;;;;8.60;3.80;;;;;;;;;;2063242;28;20225;-61
2021/03/17 03:46:36;;;;;;;7.03;3.27;;;;;;;;;;2072721;28;20284;-59
2021/03/17 03:47:37;;;;;;;3.60;3.30;;;;;;;;;;2072536;28;20176;-61
2021/03/17 03:48:38;;;;;;;5.67;3.67;;;;;;;;;;2072083;28;20216;-62
2021/03/17 03:49:38;;;;;;;6.40;3.70;;;;;;;;;;2072605;28;20645;-62
2021/03/17 03:50:43;;;;;;;6.63;3.80;;;;;;;;;;2072419;28;20695;-62
2021/03/17 03:51:47;;;;;;;8.63;3.67;;;;;;;;;;2072232;28;20195;-62
2021/03/17 03:53:11;;;;;;;4.23;3.30;;;;;;;;;;2071025;28;20213;-61
2021/03/17 03:54:21;;;;;;;4.37;2.87;;;;;;;;;;2072549;28;20199;-62
2021/03/17 03:55:27;;;;;;;6.33;3.33;;;;;;;;;;2063957;28;20180;-62
2021/03/17 03:56:37;;;;;;;3.60;3.30;;;;;;;;;;2062651;28;20197;-60
2021/03/17 03:57:42;;;;;;;10.37;3.53;;;;;;;;;;2070795;28;20191;-62
2021/03/17 03:58:58;;;;;;;5.67;3.43;;;;;;;;;;2073080;28;20536;-62
2021/03/17 04:00:04;;;;;;;4.60;3.40;;;;;;;;;;2071973;28;20272;-62
2021/03/17 04:01:07;;;;;;;5.50;2.90;;;;;;;;;;2072264;28;20173;-62
2021/03/17 04:02:09;;;;;;;6.80;3.40;;;;;;;;;;2072804;28;20196;-62
2021/03/17 04:03:12;;;;;;;5.93;3.53;;;;;;;;;;2072605;28;20171;-62
2021/03/17 04:04:14;;;;;;;5.97;3.20;;;;;;;;;;2071474;28;20172;-61
2021/03/17 04:05:19;;;;;;;3.40;3.10;;;;;;;;;;2073146;28;20177;-62
2021/03/17 04:06:19;;;;;;;5.53;3.50;;;;;;;;;;2073060;28;20674;-60
2021/03/17 04:07:20;;;;;;;3.53;2.90;;;;;;;;;;2072490;28;20177;-61
2021/03/17 04:08:21;;;;;;;5.53;2.90;;;;;;;;;;2072386;28;20173;-61
2021/03/17 04:09:29;;;;;;;5.43;3.40;;;;;;;;;;2071950;28;20291;-62
2021/03/17 04:10:29;;;;;;;5.30;3.13;;;;;;;;;;2069342;28;20190;-62
2021/03/17 04:11:30;;;;;;;4.57;3.27;;;;;;;;;;2072460;28;20199;-60
2021/03/17 04:12:33;;;;;;;6.10;3.70;;;;;;;;;;2073189;28;20559;-62
2021/03/17 04:13:34;;;;;;;8.27;3.67;;;;;;;;;;2073004;28;20209;-62
2021/03/17 04:14:35;;;;;;;5.80;3.37;;;;;;;;;;2072370;28;20207;-61
2021/03/17 04:15:36;;;;;;;4.63;2.90;;;;;;;;;;2072171;28;20181;-62
2021/03/17 04:16:38;;;;;;;3.90;3.07;;;;;;;;;;2072966;28;20177;-62
2021/03/17 04:17:53;;;;;;;4.03;3.17;;;;;;;;;;2072644;28;20173;-61
2021/03/17 04:18:55;;;;;;;4.97;3.50;;;;;;;;;;2072911;28;20251;-60
2021/03/17 04:19:57;;;;;;;4.70;3.50;;;;;;;;;;2072110;28;20181;-61
2021/03/17 04:21:01;;;;;;;6.80;3.70;;;;;;;;;;2072430;28;20265;-60
2021/03/17 04:22:02;;;;;;;4.93;3.40;;;;;;;;;;2071650;28;20684;-62
2021/03/17 04:23:05;;;;;;;7.20;3.97;;;;;;;;;;2072213;28;20185;-61
2021/03/17 04:24:06;;;;;;;7.13;3.13;;;;;;;;;;2071945;28;20230;-61
2021/03/17 04:25:07;;;;;;;5.03;3.17;;;;;;;;;;2072459;28;20594;-61
2021/03/17 04:26:08;;;;;;;4.77;4.03;;;;;;;;;;2072614;28;20181;-61
2021/03/17 04:27:10;;;;;;;6.07;3.37;;;;;;;;;;2070215;28;20212;-61
2021/03/17 04:28:13;;;;;;;4.27;2.83;;;;;;;;;;2072576;28;20200;-60
2021/03/17 04:29:13;;;;;;;6.10;3.57;;;;;;;;;;2071735;28;20712;-61
2021/03/17 04:30:15;;;;;;;6.50;3.63;;;;;;;;;;2072824;28;20176;-61
2021/03/17 04:31:16;;;;;;;9.27;3.73;;;;;;;;;;2072715;28;20173;-63
2021/03/17 04:32:17;;;;;;;7.10;3.37;;;;;;;;;;2072298;28;20602;-60
2021/03/17 04:33:17;;;;;;;7.53;3.53;;;;;;;;;;2072802;28;20252;-61
2021/03/17 04:34:18;;;;;;;7.53;3.70;;;;;;;;;;2072683;28;20531;-58
2021/03/17 04:35:18;;;;;;;5.30;3.17;;;;;;;;;;2072727;28;20230;-62
2021/03/17 04:36:19;;;;;;;5.33;3.43;;;;;;;;;;2072353;28;20193;-61
2021/03/17 04:37:20;;;;;;;7.23;4.10;;;;;;;;;;2072471;28;20185;-62
2021/03/17 04:38:20;;;;;;;5.23;3.10;;;;;;;;;;2072438;28;20173;-61
2021/03/17 04:39:21;;;;;;;8.67;3.80;;;;;;;;;;2063821;28;20630;-61
2021/03/17 04:40:22;;;;;;;9.90;3.63;;;;;;;;;;2064184;28;20292;-61
2021/03/17 04:41:23;;;;;;;5.20;3.53;;;;;;;;;;2072019;28;20169;-60
2021/03/17 04:42:24;;;;;;;4.53;3.27;;;;;;;;;;2071893;28;20180;-59
2021/03/17 04:43:24;;;;;;;5.60;4.20;;;;;;;;;;2072886;28;20176;-61
2021/03/17 04:44:25;;;;;;;5.23;3.23;;;;;;;;;;2072273;28;20665;-61
2021/03/17 04:45:25;;;;;;;4.97;3.43;;;;;;;;;;2072508;28;20253;-62
2021/03/17 04:46:25;;;;;;;9.20;3.40;;;;;;;;;;2072368;28;20219;-60
2021/03/17 04:47:26;;;;;;;6.10;3.33;;;;;;;;;;2072521;28;20176;-61
2021/03/17 04:48:27;;;;;;;5.30;3.63;;;;;;;;;;2071797;28;20276;-59
2021/03/17 04:49:27;;;;;;;7.60;3.10;;;;;;;;;;2071916;28;20307;-60
2021/03/17 04:50:28;;;;;;;4.73;3.40;;;;;;;;;;2072482;28;20730;-60
2021/03/17 04:51:28;;;;;;;6.17;3.53;;;;;;;;;;2069364;28;20200;-59
2021/03/17 04:52:29;;;;;;;3.37;2.93;;;;;;;;;;2072380;28;20231;-60
2021/03/17 04:53:29;;;;;;;4.33;3.93;;;;;;;;;;2072130;28;20227;-61
2021/03/17 04:54:30;;;;;;;4.93;3.30;;;;;;;;;;2072013;28;20602;-61
2021/03/17 04:55:30;;;;;;;7.67;3.60;;;;;;;;;;2063785;28;20174;-62
2021/03/17 04:56:31;;;;;;;6.20;3.17;;;;;;;;;;2063990;28;20844;-59
2021/03/17 04:57:34;;;;;;;9.90;3.60;;;;;;;;;;2072007;28;20173;-60
2021/03/17 04:58:39;;;;;;;5.20;3.83;;;;;;;;;;2072344;28;20181;-58
2021/03/17 04:59:40;;;;;;;8.67;3.47;;;;;;;;;;2072592;28;20176;-60
2021/03/17 05:00:40;;;;;;;7.40;3.70;;;;;;;;;;2071575;28;20221;-60
2021/03/17 05:01:42;;;;;;;5.60;3.73;;;;;;;;;;2071760;28;20193;-62
2021/03/17 05:02:44;;;;;;;7.60;3.47;;;;;;;;;;2072242;28;20188;-60
2021/03/17 05:03:45;;;;;;;4.73;3.53;;;;;;;;;;2062964;28;20187;-60
2021/03/17 05:04:47;;;;;;;7.00;3.07;;;;;;;;;;2063852;28;20206;-61
2021/03/17 05:05:49;;;;;;;6.73;3.20;;;;;;;;;;2072407;28;20568;-59
2021/03/17 05:06:50;;;;;;;5.50;3.50;;;;;;;;;;2072875;28;20189;-61
2021/03/17 05:07:53;;;;;;;10.67;3.73;;;;;;;;;;2072429;28;20169;-59
2021/03/17 05:08:53;;;;;;;6.00;3.10;;;;;;;;;;2072415;28;20566;-62
2021/03/17 05:09:54;;;;;;;5.37;3.77;;;;;;;;;;2071705;28;20175;-61
2021/03/17 05:10:54;;;;;;;4.90;3.20;;;;;;;;;;2072864;28;20180;-59
2021/03/17 05:11:56;;;;;;;5.50;3.27;;;;;;;;;;2072158;28;20594;-58
2021/03/17 05:12:56;;;;;;;4.43;3.63;;;;;;;;;;2072845;28;20664;-58
2021/03/17 05:13:57;;;;;;;5.07;3.60;;;;;;;;;;2072553;28;20204;-60
2021/03/17 05:14:58;;;;;;;3.63;3.27;;;;;;;;;;2071706;28;20235;-59
2021/03/17 05:15:58;;;;;;;4.37;3.53;;;;;;;;;;2072315;28;20181;-58
2021/03/17 05:17:03;;;;;;;5.33;3.93;;;;;;;;;;2071207;28;20181;-59
2021/03/17 05:18:04;;;;;;;7.83;3.97;;;;;;;;;;2071901;28;20276;-60
2021/03/17 05:19:05;;;;;;;4.93;3.60;;;;;;;;;;2071979;28;20165;-57
2021/03/17 05:20:11;;;;;;;7.17;3.87;;;;;;;;;;2071100;28;20180;-58
2021/03/17 05:21:11;;;;;;;7.33;3.70;;;;;;;;;;2071747;28;20187;-60
2021/03/17 05:22:12;;;;;;;9.23;3.77;;;;;;;;;;2072306;28;20239;-60
2021/03/17 05:23:13;;;;;;;4.13;3.73;;;;;;;;;;2072120;28;20256;-60
2021/03/17 05:24:14;;;;;;;5.13;3.93;;;;;;;;;;2072707;28;20169;-56
2021/03/17 05:25:15;;;;;;;9.27;4.63;;;;;;;;;;2071431;28;20216;-56
2021/03/17 05:26:16;;;;;;;4.37;3.70;;;;;;;;;;2072044;28;20169;-58
2021/03/17 05:27:19;;;;;;;5.20;3.33;;;;;;;;;;2071710;28;20180;-56
2021/03/17 05:28:20;;;;;;;7.00;3.37;;;;;;;;;;2072810;28;20835;-59
2021/03/17 05:29:21;;;;;;;7.93;4.00;;;;;;;;;;2071871;28;20181;-56
2021/03/17 05:30:23;;;;;;;6.80;3.77;;;;;;;;;;2071319;28;20181;-58
2021/03/17 05:31:23;;;;;;;6.50;4.00;;;;;;;;;;2071243;28;20177;-56
2021/03/17 05:32:25;;;;;;;6.47;3.53;;;;;;;;;;2072583;28;20181;-59
2021/03/17 05:33:26;;;;;;;7.37;3.70;;;;;;;;;;2074116;28;20188;-60
2021/03/17 05:34:26;;;;;;;7.33;4.00;;;;;;;;;;2073552;28;20200;-58
2021/03/17 05:35:27;;;;;;;4.63;3.43;;;;;;;;;;2065289;28;20529;-55
2021/03/17 05:36:30;;;;;;;7.00;3.60;;;;;;;;;;2065114;28;20181;-58
2021/03/17 05:37:30;;;;;;;9.07;3.53;;;;;;;;;;2073995;28;20213;-57
2021/03/17 05:38:30;;;;;;;6.87;3.90;;;;;;;;;;2073821;28;20173;-57
2021/03/17 05:39:30;;;;;;;7.43;3.67;;;;;;;;;;2073645;28;20173;-55
2021/03/17 05:40:31;;;;;;;10.70;4.17;;;;;;;;;;2073759;28;20211;-55
2021/03/17 05:41:35;;;;;;;6.10;4.00;;;;;;;;;;2064931;28;20173;-61
2021/03/17 05:42:37;;;;;;;5.77;3.43;;;;;;;;;;2057443;28;20237;-56
2021/03/17 05:43:37;;;;;;;6.93;3.60;;;;;;;;;;2065424;28;20177;-58
2021/03/17 05:44:38;;;;;;;7.67;4.53;;;;;;;;;;2073768;28;20208;-59
2021/03/17 05:45:38;;;;;;;7.77;3.97;;;;;;;;;;2078849;28;20169;-61
2021/03/17 05:46:40;;;;;;;7.43;3.73;;;;;;;;;;2077996;28;20185;-62
2021/03/17 05:47:48;;;;;;;3.67;3.00;;;;;;;;;;2079930;28;20232;-61
2021/03/17 05:48:49;;;;;;;6.37;3.60;;;;;;;;;;2078917;28;20185;-62
2021/03/17 05:49:50;;;;;;;7.70;3.60;;;;;;;;;;2074407;28;20176;-62
2021/03/17 05:50:50;;;;;;;7.70;4.13;;;;;;;;;;2073720;28;20685;-61
2021/03/17 05:51:50;;;;;;;10.00;4.17;;;;;;;;;;2072232;28;20196;-61
2021/03/17 05:52:51;;;;;;;7.53;3.97;;;;;;;;;;2073052;28;20262;-61
2021/03/17 05:53:51;;;;;;;4.33;3.23;;;;;;;;;;2073330;28;20169;-61
2021/03/17 05:54:52;;;;;;;4.50;3.90;;;;;;;;;;2064749;28;20201;-59
2021/03/17 05:55:53;;;;;;;5.40;3.40;;;;;;;;;;2064749;28;20201;-61
2021/03/17 05:56:53;;;;;;;6.20;3.67;;;;;;;;;;2073342;28;20173;-61
2021/03/17 05:57:56;;;;;;;6.70;3.13;;;;;;;;;;2064736;28;20183;-59
2021/03/17 05:58:59;;;;;;;8.13;3.43;;;;;;;;;;2065680;28;20185;-60
2021/03/17 05:59:59;;;;;;;8.33;3.53;;;;;;;;;;2073247;28;20231;-59
2021/03/17 06:00:59;;;;;;;10.17;3.67;;;;;;;;;;2073664;28;20181;-61
2021/03/17 06:02:00;;;;;;;8.50;3.73;;;;;;;;;;2073084;28;20177;-60
2021/03/17 06:03:02;;;;;;;8.87;3.83;;;;;;;;;;2074005;28;20180;-60
2021/03/17 06:04:03;;;;;;;5.93;3.30;;;;;;;;;;2073350;28;20184;-60
2021/03/17 06:05:03;;;;;;;4.50;3.40;;;;;;;;;;2073777;28;20184;-60
2021/03/17 06:06:07;;;;;;;6.57;3.50;;;;;;;;;;2072819;28;20169;-62
2021/03/17 06:07:15;;;;;;;6.87;3.57;;;;;;;;;;2073853;28;20633;-61
2021/03/17 06:08:22;;;;;;;6.17;3.73;;;;;;;;;;2073037;28;20175;-59
2021/03/17 06:09:23;;;;;;;6.40;3.47;;;;;;;;;;2073230;28;20231;-61
2021/03/17 06:10:24;;;;;;;7.83;3.87;;;;;;;;;;2072841;28;20181;-60
2021/03/17 06:11:25;;;;;;;6.53;3.63;;;;;;;;;;2072430;28;20185;-61
2021/03/17 06:12:27;;;;;;;6.97;3.90;;;;;;;;;;2073737;28;20177;-59
2021/03/17 06:13:28;;;;;;;6.00;3.93;;;;;;;;;;2073194;28;20605;-56
2021/03/17 06:14:30;;;;;;;5.00;3.90;;;;;;;;;;2073267;28;20303;-59
2021/03/17 06:15:31;;;;;;;9.07;3.77;;;;;;;;;;2073578;28;20180;-60
2021/03/17 06:16:32;;;;;;;3.87;3.57;;;;;;;;;;2073477;28;20255;-57
2021/03/17 06:17:33;;;;;;;5.73;4.30;;;;;;;;;;2072902;28;20422;-59
2021/03/17 06:18:41;;;;;;;5.17;3.67;;;;;;;;;;2073134;28;20181;-54
2021/03/17 06:19:43;;;;;;;5.63;3.90;;;;;;;;;;2073073;28;20181;-53
2021/03/17 06:20:43;;;;;;;5.43;4.20;;;;;;;;;;2072824;28;20247;-51
2021/03/17 06:21:43;;;;;;;5.37;3.90;;;;;;;;;;2072173;28;20206;-58
2021/03/17 06:22:44;;;;;;;4.27;3.70;;;;;;;;;;2072746;28;20165;-59
2021/03/17 06:23:47;;;;;;;10.40;4.67;;;;;;;;;;2073589;28;20169;-62
2021/03/17 06:24:48;;;;;;;8.33;4.57;;;;;;;;;;2073195;28;20591;-62
2021/03/17 06:25:49;;;;;;;6.10;3.87;;;;;;;;;;2073664;28;20256;-63
2021/03/17 06:26:49;;;;;;;6.17;4.07;;;;;;;;;;2073606;28;20177;-63
2021/03/17 06:27:50;;;;;;;4.67;4.03;;;;;;;;;;2073034;28;20181;-63
2021/03/17 06:28:50;;;;;;;7.10;4.33;;;;;;;;;;2073152;28;20177;-62
2021/03/17 06:29:50;;;;;;;8.50;4.37;;;;;;;;;;2071847;28;20180;-60
2021/03/17 06:30:53;;;;;;;8.07;4.47;;;;;;;;;;2073007;28;20184;-61
2021/03/17 06:31:53;;;;;;;5.37;4.47;;;;;;;;;;2072288;28;20185;-60